sensor_id;sensor_type;location;lat;lon;timestamp;P1;durP1;ratioP1;P2;durP2;ratioP2
7795;SDS011;3942;51.518;6.912;2024-03-22T00:04:57;37.25;;;20.20;;
7795;SDS011;3942;51.518;6.912;2024-03-22T00:09:59;43.70;;;21.35;;
7795;SDS011;3942;51.518;6.912;2024-03-22T00:15:01;39.08;;;19.77;;
7795;SDS011;3942;51.518;6.912;2024-03-22T00:20:05;41.88;;;19.80;;
7795;SDS011;3942;51.518;6.912;2024-03-22T00:25:08;39.05;;;18.90;;
7795;SDS011;3942;51.518;6.912;2024-03-22T00:30:10;40.80;;;19.48;;
7795;SDS011;3942;51.518;6.912;2024-03-22T00:35:13;34.95;;;18.80;;
7795;SDS011;3942;51.518;6.912;2024-03-22T00:40:15;36.70;;;19.10;;
7795;SDS011;3942;51.518;6.912;2024-03-22T00:45:18;38.03;;;19.88;;
7795;SDS011;3942;51.518;6.912;2024-03-22T00:50:21;35.92;;;19.10;;
7795;SDS011;3942;51.518;6.912;2024-03-22T00:55:23;38.35;;;19.27;;
7795;SDS011;3942;51.518;6.912;2024-03-22T01:00:25;39.53;;;19.90;;
7795;SDS011;3942;51.518;6.912;2024-03-22T01:05:29;37.95;;;19.88;;
7795;SDS011;3942;51.518;6.912;2024-03-22T01:10:32;34.45;;;18.15;;
7795;SDS011;3942;51.518;6.912;2024-03-22T01:15:34;39.45;;;19.55;;
7795;SDS011;3942;51.518;6.912;2024-03-22T01:20:38;36.22;;;19.75;;
7795;SDS011;3942;51.518;6.912;2024-03-22T01:25:40;39.47;;;20.40;;
7795;SDS011;3942;51.518;6.912;2024-03-22T01:30:42;36.90;;;19.60;;
7795;SDS011;3942;51.518;6.912;2024-03-22T01:35:46;40.97;;;20.45;;
7795;SDS011;3942;51.518;6.912;2024-03-22T01:40:48;35.70;;;19.67;;
7795;SDS011;3942;51.518;6.912;2024-03-22T01:45:50;39.35;;;20.77;;
7795;SDS011;3942;51.518;6.912;2024-03-22T01:50:53;40.30;;;20.65;;
7795;SDS011;3942;51.518;6.912;2024-03-22T01:55:55;40.97;;;19.58;;
7795;SDS011;3942;51.518;6.912;2024-03-22T02:00:57;43.70;;;21.58;;
7795;SDS011;3942;51.518;6.912;2024-03-22T02:06:01;40.38;;;20.88;;
7795;SDS011;3942;51.518;6.912;2024-03-22T02:11:03;43.25;;;20.38;;
7795;SDS011;3942;51.518;6.912;2024-03-22T02:16:06;39.63;;;22.05;;
7795;SDS011;3942;51.518;6.912;2024-03-22T02:21:09;43.45;;;21.55;;
7795;SDS011;3942;51.518;6.912;2024-03-22T02:26:13;46.45;;;20.58;;
7795;SDS011;3942;51.518;6.912;2024-03-22T02:31:15;41.78;;;20.95;;
7795;SDS011;3942;51.518;6.912;2024-03-22T02:36:17;39.42;;;20.05;;
7795;SDS011;3942;51.518;6.912;2024-03-22T02:41:21;42.80;;;22.85;;
7795;SDS011;3942;51.518;6.912;2024-03-22T02:46:23;43.42;;;21.90;;
7795;SDS011;3942;51.518;6.912;2024-03-22T02:51:25;42.53;;;19.30;;
7795;SDS011;3942;51.518;6.912;2024-03-22T02:56:29;45.90;;;22.60;;
7795;SDS011;3942;51.518;6.912;2024-03-22T03:01:31;41.17;;;19.20;;
7795;SDS011;3942;51.518;6.912;2024-03-22T03:06:33;44.90;;;20.58;;
7795;SDS011;3942;51.518;6.912;2024-03-22T03:11:36;43.58;;;20.70;;
7795;SDS011;3942;51.518;6.912;2024-03-22T03:16:38;44.63;;;22.50;;
7795;SDS011;3942;51.518;6.912;2024-03-22T03:21:41;38.70;;;18.60;;
7795;SDS011;3942;51.518;6.912;2024-03-22T03:26:44;40.08;;;19.73;;
7795;SDS011;3942;51.518;6.912;2024-03-22T03:31:46;38.67;;;20.10;;
7795;SDS011;3942;51.518;6.912;2024-03-22T03:36:48;39.95;;;19.38;;
7795;SDS011;3942;51.518;6.912;2024-03-22T03:41:52;41.53;;;22.13;;
7795;SDS011;3942;51.518;6.912;2024-03-22T03:46:54;41.78;;;20.65;;
7795;SDS011;3942;51.518;6.912;2024-03-22T03:51:56;42.78;;;19.55;;
7795;SDS011;3942;51.518;6.912;2024-03-22T03:57:00;42.90;;;20.17;;
7795;SDS011;3942;51.518;6.912;2024-03-22T04:02:02;40.13;;;20.08;;
7795;SDS011;3942;51.518;6.912;2024-03-22T04:07:04;37.00;;;19.15;;
7795;SDS011;3942;51.518;6.912;2024-03-22T04:12:07;41.67;;;20.35;;
7795;SDS011;3942;51.518;6.912;2024-03-22T04:17:10;41.95;;;21.27;;
7795;SDS011;3942;51.518;6.912;2024-03-22T04:22:12;41.53;;;22.25;;
7795;SDS011;3942;51.518;6.912;2024-03-22T04:27:15;44.03;;;23.05;;
7795;SDS011;3942;51.518;6.912;2024-03-22T04:32:17;41.67;;;19.65;;
7795;SDS011;3942;51.518;6.912;2024-03-22T04:37:19;39.45;;;20.55;;
7795;SDS011;3942;51.518;6.912;2024-03-22T04:42:23;39.33;;;19.75;;
7795;SDS011;3942;51.518;6.912;2024-03-22T04:47:25;39.40;;;19.95;;
7795;SDS011;3942;51.518;6.912;2024-03-22T04:52:27;34.10;;;18.35;;
7795;SDS011;3942;51.518;6.912;2024-03-22T04:57:31;35.70;;;18.17;;
7795;SDS011;3942;51.518;6.912;2024-03-22T05:02:32;40.45;;;19.98;;
7795;SDS011;3942;51.518;6.912;2024-03-22T05:07:34;42.15;;;19.02;;
7795;SDS011;3942;51.518;6.912;2024-03-22T05:12:38;33.67;;;18.83;;
7795;SDS011;3942;51.518;6.912;2024-03-22T05:17:40;36.80;;;18.92;;
7795;SDS011;3942;51.518;6.912;2024-03-22T05:22:43;39.30;;;19.48;;
7795;SDS011;3942;51.518;6.912;2024-03-22T05:27:46;34.13;;;17.00;;
7795;SDS011;3942;51.518;6.912;2024-03-22T05:32:49;32.22;;;18.48;;
7795;SDS011;3942;51.518;6.912;2024-03-22T05:37:51;39.83;;;17.27;;
7795;SDS011;3942;51.518;6.912;2024-03-22T05:42:54;42.08;;;18.83;;
7795;SDS011;3942;51.518;6.912;2024-03-22T05:47:56;35.92;;;19.77;;
7795;SDS011;3942;51.518;6.912;2024-03-22T05:52:58;38.15;;;19.10;;
7795;SDS011;3942;51.518;6.912;2024-03-22T05:58:02;32.83;;;17.60;;
7795;SDS011;3942;51.518;6.912;2024-03-22T06:03:04;36.83;;;17.30;;
7795;SDS011;3942;51.518;6.912;2024-03-22T06:08:06;34.95;;;17.23;;
7795;SDS011;3942;51.518;6.912;2024-03-22T06:13:10;39.03;;;20.27;;
7795;SDS011;3942;51.518;6.912;2024-03-22T06:18:12;35.13;;;19.08;;
7795;SDS011;3942;51.518;6.912;2024-03-22T06:23:14;33.10;;;17.92;;
7795;SDS011;3942;51.518;6.912;2024-03-22T06:28:18;35.35;;;17.50;;
7795;SDS011;3942;51.518;6.912;2024-03-22T06:33:20;35.22;;;19.40;;
7795;SDS011;3942;51.518;6.912;2024-03-22T06:38:22;32.78;;;17.30;;
7795;SDS011;3942;51.518;6.912;2024-03-22T06:43:26;29.38;;;18.08;;
7795;SDS011;3942;51.518;6.912;2024-03-22T06:48:28;34.38;;;17.95;;
7795;SDS011;3942;51.518;6.912;2024-03-22T06:53:30;54.92;;;30.45;;
7795;SDS011;3942;51.518;6.912;2024-03-22T06:58:34;37.10;;;21.50;;
7795;SDS011;3942;51.518;6.912;2024-03-22T07:03:36;119.82;;;67.63;;
7795;SDS011;3942;51.518;6.912;2024-03-22T07:08:38;70.75;;;39.30;;
7795;SDS011;3942;51.518;6.912;2024-03-22T07:13:42;43.38;;;22.80;;
7795;SDS011;3942;51.518;6.912;2024-03-22T07:18:44;65.85;;;32.03;;
7795;SDS011;3942;51.518;6.912;2024-03-22T07:23:46;65.43;;;30.92;;
7795;SDS011;3942;51.518;6.912;2024-03-22T07:28:49;74.00;;;35.50;;
7795;SDS011;3942;51.518;6.912;2024-03-22T07:33:52;75.38;;;34.67;;
7795;SDS011;3942;51.518;6.912;2024-03-22T07:38:54;80.78;;;37.85;;
7795;SDS011;3942;51.518;6.912;2024-03-22T07:44:00;68.53;;;31.88;;
7795;SDS011;3942;51.518;6.912;2024-03-22T07:49:02;41.90;;;21.10;;
7795;SDS011;3942;51.518;6.912;2024-03-22T07:54:05;65.18;;;29.80;;
7795;SDS011;3942;51.518;6.912;2024-03-22T07:59:08;58.80;;;28.08;;
7795;SDS011;3942;51.518;6.912;2024-03-22T08:04:10;98.65;;;51.58;;
7795;SDS011;3942;51.518;6.912;2024-03-22T08:09:12;59.60;;;29.77;;
7795;SDS011;3942;51.518;6.912;2024-03-22T08:14:15;45.45;;;23.08;;
7795;SDS011;3942;51.518;6.912;2024-03-22T08:19:17;38.25;;;19.92;;
7795;SDS011;3942;51.518;6.912;2024-03-22T08:24:19;41.88;;;19.75;;
7795;SDS011;3942;51.518;6.912;2024-03-22T08:29:22;41.67;;;18.15;;
7795;SDS011;3942;51.518;6.912;2024-03-22T08:34:24;72.93;;;36.55;;
7795;SDS011;3942;51.518;6.912;2024-03-22T08:39:26;82.30;;;37.22;;
7795;SDS011;3942;51.518;6.912;2024-03-22T08:44:29;28.10;;;15.85;;
7795;SDS011;3942;51.518;6.912;2024-03-22T08:49:31;44.22;;;18.63;;
7795;SDS011;3942;51.518;6.912;2024-03-22T08:54:33;21.55;;;11.70;;
7795;SDS011;3942;51.518;6.912;2024-03-22T08:59:37;20.30;;;11.43;;
7795;SDS011;3942;51.518;6.912;2024-03-22T09:04:40;18.98;;;11.00;;
7795;SDS011;3942;51.518;6.912;2024-03-22T09:09:42;24.65;;;11.57;;
7795;SDS011;3942;51.518;6.912;2024-03-22T09:14:45;17.80;;;10.15;;
7795;SDS011;3942;51.518;6.912;2024-03-22T09:19:47;21.90;;;10.82;;
7795;SDS011;3942;51.518;6.912;2024-03-22T09:24:49;22.92;;;12.00;;
7795;SDS011;3942;51.518;6.912;2024-03-22T09:29:52;19.55;;;10.43;;
7795;SDS011;3942;51.518;6.912;2024-03-22T09:34:54;19.05;;;10.00;;
7795;SDS011;3942;51.518;6.912;2024-03-22T09:39:56;18.70;;;9.90;;
7795;SDS011;3942;51.518;6.912;2024-03-22T09:45:00;15.57;;;9.52;;
7795;SDS011;3942;51.518;6.912;2024-03-22T09:50:03;19.90;;;10.90;;
7795;SDS011;3942;51.518;6.912;2024-03-22T09:55:08;20.70;;;11.55;;
7795;SDS011;3942;51.518;6.912;2024-03-22T10:00:12;20.98;;;11.43;;
7795;SDS011;3942;51.518;6.912;2024-03-22T10:05:16;22.52;;;10.00;;
7795;SDS011;3942;51.518;6.912;2024-03-22T10:10:19;25.95;;;14.38;;
7795;SDS011;3942;51.518;6.912;2024-03-22T10:15:23;18.10;;;11.38;;
7795;SDS011;3942;51.518;6.912;2024-03-22T10:20:26;19.00;;;10.88;;
7795;SDS011;3942;51.518;6.912;2024-03-22T10:31:27;20.27;;;11.23;;
7795;SDS011;3942;51.518;6.912;2024-03-22T10:36:29;22.17;;;11.10;;
7795;SDS011;3942;51.518;6.912;2024-03-22T10:41:31;21.20;;;11.93;;
7795;SDS011;3942;51.518;6.912;2024-03-22T10:46:35;18.13;;;10.52;;
7795;SDS011;3942;51.518;6.912;2024-03-22T10:51:37;17.38;;;9.65;;
7795;SDS011;3942;51.518;6.912;2024-03-22T10:56:41;18.48;;;10.23;;
7795;SDS011;3942;51.518;6.912;2024-03-22T11:01:46;17.00;;;9.45;;
7795;SDS011;3942;51.518;6.912;2024-03-22T11:06:48;17.27;;;10.15;;
7795;SDS011;3942;51.518;6.912;2024-03-22T11:11:51;19.95;;;10.27;;
7795;SDS011;3942;51.518;6.912;2024-03-22T11:16:55;19.30;;;10.45;;
7795;SDS011;3942;51.518;6.912;2024-03-22T11:21:57;15.48;;;10.43;;
7795;SDS011;3942;51.518;6.912;2024-03-22T11:26:59;19.80;;;10.40;;
7795;SDS011;3942;51.518;6.912;2024-03-22T11:32:02;20.80;;;11.25;;
7795;SDS011;3942;51.518;6.912;2024-03-22T11:37:05;18.52;;;11.82;;
7795;SDS011;3942;51.518;6.912;2024-03-22T11:42:10;20.10;;;10.98;;
7795;SDS011;3942;51.518;6.912;2024-03-22T11:47:14;25.38;;;15.15;;
7795;SDS011;3942;51.518;6.912;2024-03-22T11:52:16;17.55;;;11.27;;
7795;SDS011;3942;51.518;6.912;2024-03-22T11:57:18;26.40;;;16.23;;
7795;SDS011;3942;51.518;6.912;2024-03-22T12:02:22;22.30;;;12.65;;
7795;SDS011;3942;51.518;6.912;2024-03-22T12:07:24;22.30;;;13.23;;
7795;SDS011;3942;51.518;6.912;2024-03-22T12:12:26;19.73;;;11.73;;
7795;SDS011;3942;51.518;6.912;2024-03-22T12:17:29;22.45;;;12.45;;
7795;SDS011;3942;51.518;6.912;2024-03-22T12:22:31;19.90;;;11.60;;
7795;SDS011;3942;51.518;6.912;2024-03-22T12:27:33;19.80;;;11.75;;
7795;SDS011;3942;51.518;6.912;2024-03-22T12:32:36;21.08;;;12.05;;
7795;SDS011;3942;51.518;6.912;2024-03-22T12:37:38;20.27;;;12.95;;
7795;SDS011;3942;51.518;6.912;2024-03-22T12:42:40;18.17;;;11.50;;
7795;SDS011;3942;51.518;6.912;2024-03-22T12:47:44;22.45;;;13.32;;
7795;SDS011;3942;51.518;6.912;2024-03-22T12:52:46;29.48;;;18.92;;
7795;SDS011;3942;51.518;6.912;2024-03-22T12:57:48;18.20;;;12.82;;
7795;SDS011;3942;51.518;6.912;2024-03-22T13:02:51;20.58;;;12.68;;
7795;SDS011;3942;51.518;6.912;2024-03-22T13:07:53;16.77;;;10.30;;
7795;SDS011;3942;51.518;6.912;2024-03-22T13:12:55;19.08;;;11.77;;
7795;SDS011;3942;51.518;6.912;2024-03-22T13:17:59;18.30;;;12.00;;
7795;SDS011;3942;51.518;6.912;2024-03-22T13:23:01;17.25;;;12.25;;
7795;SDS011;3942;51.518;6.912;2024-03-22T13:28:03;20.02;;;10.93;;
7795;SDS011;3942;51.518;6.912;2024-03-22T13:33:07;19.45;;;11.57;;
7795;SDS011;3942;51.518;6.912;2024-03-22T13:38:10;22.00;;;12.13;;
7795;SDS011;3942;51.518;6.912;2024-03-22T13:43:13;20.98;;;12.63;;
7795;SDS011;3942;51.518;6.912;2024-03-22T13:48:17;23.50;;;12.75;;
7795;SDS011;3942;51.518;6.912;2024-03-22T13:53:19;19.63;;;13.07;;
7795;SDS011;3942;51.518;6.912;2024-03-22T13:58:22;23.15;;;14.07;;
7795;SDS011;3942;51.518;6.912;2024-03-22T14:03:25;22.58;;;13.38;;
7795;SDS011;3942;51.518;6.912;2024-03-22T14:08:27;20.40;;;13.35;;
7795;SDS011;3942;51.518;6.912;2024-03-22T14:13:29;20.88;;;13.85;;
7795;SDS011;3942;51.518;6.912;2024-03-22T14:18:32;49.17;;;26.55;;
7795;SDS011;3942;51.518;6.912;2024-03-22T14:23:35;21.38;;;13.27;;
7795;SDS011;3942;51.518;6.912;2024-03-22T14:28:37;31.42;;;17.58;;
7795;SDS011;3942;51.518;6.912;2024-03-22T14:33:41;20.92;;;14.75;;
7795;SDS011;3942;51.518;6.912;2024-03-22T14:38:43;26.92;;;15.93;;
7795;SDS011;3942;51.518;6.912;2024-03-22T14:43:45;24.38;;;16.23;;
7795;SDS011;3942;51.518;6.912;2024-03-22T14:48:48;26.65;;;16.83;;
7795;SDS011;3942;51.518;6.912;2024-03-22T14:53:50;26.08;;;16.00;;
7795;SDS011;3942;51.518;6.912;2024-03-22T14:58:52;22.73;;;14.10;;
7795;SDS011;3942;51.518;6.912;2024-03-22T15:03:59;25.13;;;15.63;;
7795;SDS011;3942;51.518;6.912;2024-03-22T15:09:00;26.90;;;16.23;;
7795;SDS011;3942;51.518;6.912;2024-03-22T15:19:12;31.52;;;17.25;;
7795;SDS011;3942;51.518;6.912;2024-03-22T15:24:14;25.65;;;15.35;;
7795;SDS011;3942;51.518;6.912;2024-03-22T15:29:15;29.27;;;15.95;;
7795;SDS011;3942;51.518;6.912;2024-03-22T15:34:19;29.15;;;17.23;;
7795;SDS011;3942;51.518;6.912;2024-03-22T15:39:22;27.25;;;16.92;;
7795;SDS011;3942;51.518;6.912;2024-03-22T15:44:25;31.13;;;18.13;;
7795;SDS011;3942;51.518;6.912;2024-03-22T15:49:29;29.83;;;18.02;;
7795;SDS011;3942;51.518;6.912;2024-03-22T15:54:31;28.42;;;18.52;;
7795;SDS011;3942;51.518;6.912;2024-03-22T15:59:33;38.85;;;22.40;;
7795;SDS011;3942;51.518;6.912;2024-03-22T16:04:37;39.33;;;23.40;;
7795;SDS011;3942;51.518;6.912;2024-03-22T16:09:39;45.08;;;23.65;;
7795;SDS011;3942;51.518;6.912;2024-03-22T16:14:41;45.20;;;25.52;;
7795;SDS011;3942;51.518;6.912;2024-03-22T16:19:45;47.85;;;27.17;;
7795;SDS011;3942;51.518;6.912;2024-03-22T16:24:47;40.65;;;25.45;;
7795;SDS011;3942;51.518;6.912;2024-03-22T16:29:49;40.90;;;23.08;;
7795;SDS011;3942;51.518;6.912;2024-03-22T16:34:52;32.50;;;19.05;;
7795;SDS011;3942;51.518;6.912;2024-03-22T16:39:54;24.13;;;16.10;;
7795;SDS011;3942;51.518;6.912;2024-03-22T16:44:56;28.23;;;18.55;;
7795;SDS011;3942;51.518;6.912;2024-03-22T16:49:59;123.28;;;81.05;;
7795;SDS011;3942;51.518;6.912;2024-03-22T16:55:01;31.90;;;20.05;;
7795;SDS011;3942;51.518;6.912;2024-03-22T17:00:03;27.08;;;16.80;;
7795;SDS011;3942;51.518;6.912;2024-03-22T17:05:08;25.88;;;14.23;;
7795;SDS011;3942;51.518;6.912;2024-03-22T17:10:10;24.52;;;15.52;;
7795;SDS011;3942;51.518;6.912;2024-03-22T17:15:12;28.38;;;18.00;;
7795;SDS011;3942;51.518;6.912;2024-03-22T17:20:15;25.45;;;14.70;;
7795;SDS011;3942;51.518;6.912;2024-03-22T17:25:18;24.98;;;15.45;;
7795;SDS011;3942;51.518;6.912;2024-03-22T17:30:22;23.08;;;15.05;;
7795;SDS011;3942;51.518;6.912;2024-03-22T17:35:26;20.80;;;11.48;;
7795;SDS011;3942;51.518;6.912;2024-03-22T17:40:28;24.90;;;16.20;;
7795;SDS011;3942;51.518;6.912;2024-03-22T17:45:34;13.10;;;6.90;;
7795;SDS011;3942;51.518;6.912;2024-03-22T17:50:38;10.60;;;6.05;;
7795;SDS011;3942;51.518;6.912;2024-03-22T17:55:40;7.20;;;4.80;;
7795;SDS011;3942;51.518;6.912;2024-03-22T18:00:42;9.30;;;5.82;;
7795;SDS011;3942;51.518;6.912;2024-03-22T18:05:45;8.95;;;5.72;;
7795;SDS011;3942;51.518;6.912;2024-03-22T18:10:47;11.70;;;5.55;;
7795;SDS011;3942;51.518;6.912;2024-03-22T18:15:50;12.00;;;5.97;;
7795;SDS011;3942;51.518;6.912;2024-03-22T18:20:53;13.90;;;6.63;;
7795;SDS011;3942;51.518;6.912;2024-03-22T18:25:56;15.07;;;7.75;;
7795;SDS011;3942;51.518;6.912;2024-03-22T18:30:59;14.90;;;6.90;;
7795;SDS011;3942;51.518;6.912;2024-03-22T18:36:03;28.77;;;16.23;;
7795;SDS011;3942;51.518;6.912;2024-03-22T18:41:05;29.67;;;16.77;;
7795;SDS011;3942;51.518;6.912;2024-03-22T18:46:07;15.85;;;7.38;;
7795;SDS011;3942;51.518;6.912;2024-03-22T18:51:12;23.63;;;12.00;;
7795;SDS011;3942;51.518;6.912;2024-03-22T18:56:15;14.73;;;6.60;;
7795;SDS011;3942;51.518;6.912;2024-03-22T19:01:18;16.73;;;11.88;;
7795;SDS011;3942;51.518;6.912;2024-03-22T19:06:22;15.10;;;7.95;;
7795;SDS011;3942;51.518;6.912;2024-03-22T19:11:24;37.65;;;18.77;;
7795;SDS011;3942;51.518;6.912;2024-03-22T19:16:26;17.45;;;9.23;;
7795;SDS011;3942;51.518;6.912;2024-03-22T19:21:30;22.25;;;13.05;;
7795;SDS011;3942;51.518;6.912;2024-03-22T19:26:32;16.13;;;9.70;;
7795;SDS011;3942;51.518;6.912;2024-03-22T19:31:37;16.92;;;9.93;;
7795;SDS011;3942;51.518;6.912;2024-03-22T19:36:43;18.23;;;10.82;;
7795;SDS011;3942;51.518;6.912;2024-03-22T19:41:45;20.25;;;10.95;;
7795;SDS011;3942;51.518;6.912;2024-03-22T19:46:48;20.77;;;10.40;;
7795;SDS011;3942;51.518;6.912;2024-03-22T19:51:51;39.15;;;22.50;;
7795;SDS011;3942;51.518;6.912;2024-03-22T19:56:53;21.23;;;11.80;;
7795;SDS011;3942;51.518;6.912;2024-03-22T20:01:56;23.15;;;14.55;;
7795;SDS011;3942;51.518;6.912;2024-03-22T20:06:59;33.00;;;19.58;;
7795;SDS011;3942;51.518;6.912;2024-03-22T20:12:03;21.13;;;13.07;;
7795;SDS011;3942;51.518;6.912;2024-03-22T20:17:06;24.40;;;13.15;;
7795;SDS011;3942;51.518;6.912;2024-03-22T20:22:09;27.33;;;12.60;;
7795;SDS011;3942;51.518;6.912;2024-03-22T20:27:11;23.38;;;13.25;;
7795;SDS011;3942;51.518;6.912;2024-03-22T20:32:13;27.63;;;16.85;;
7795;SDS011;3942;51.518;6.912;2024-03-22T20:37:17;31.88;;;19.65;;
